createdAt,value
2017-11-01T00:00:23.914Z,0
2017-11-01T00:01:26.298Z,0
2017-11-01T00:02:29.019Z,0
2017-11-01T00:03:31.404Z,0
2017-11-01T00:04:33.773Z,0
2017-11-01T00:05:36.163Z,0
2017-11-01T00:06:38.541Z,0
2017-11-01T00:07:40.934Z,0
2017-11-01T00:08:43.298Z,0
2017-11-01T00:09:45.679Z,0
2017-11-01T00:10:48.051Z,0
2017-11-01T00:11:50.426Z,0
2017-11-01T00:12:52.803Z,0
2017-11-01T00:13:55.181Z,0
2017-11-01T00:14:57.898Z,0
2017-11-01T00:16:00.285Z,0
2017-11-01T00:17:02.658Z,0
2017-11-01T00:18:05.068Z,0
2017-11-01T00:19:07.459Z,0
2017-11-01T00:20:09.847Z,0
2017-11-01T00:21:12.578Z,0
2017-11-01T00:22:14.953Z,0
2017-11-01T00:23:17.334Z,0
2017-11-01T00:24:19.723Z,0
2017-11-01T00:25:22.108Z,0
2017-11-01T00:26:24.514Z,0
2017-11-01T00:27:26.868Z,0
2017-11-01T00:28:29.243Z,0
2017-11-01T00:29:31.614Z,0
2017-11-01T00:30:34.023Z,0
2017-11-01T00:31:37.445Z,0
2017-11-01T00:32:52.625Z,0
2017-11-01T00:34:02.417Z,0
2017-11-01T00:35:22.663Z,0
2017-11-01T00:36:41.313Z,0
2017-11-01T00:37:55.277Z,0
2017-11-01T00:39:01.827Z,0
2017-11-01T00:40:11.658Z,0
2017-11-01T00:41:24.678Z,0
2017-11-01T00:42:36.813Z,0
2017-11-01T00:43:48.175Z,0
2017-11-01T00:45:02.221Z,0
2017-11-01T00:46:18.869Z,0
2017-11-01T00:47:28.248Z,0
2017-11-01T00:48:37.956Z,0
2017-11-01T00:49:51.088Z,0
2017-11-01T00:51:09.582Z,0
2017-11-01T00:52:23.995Z,0
2017-11-01T00:53:38.611Z,0
2017-11-01T00:54:54.538Z,0
2017-11-01T00:56:03.424Z,0
2017-11-01T00:57:26.550Z,0
2017-11-01T00:58:40.448Z,0
2017-11-01T00:59:48.377Z,0
2017-11-01T01:00:59.542Z,0
2017-11-01T01:02:02.270Z,0
2017-11-01T01:03:05.045Z,0
2017-11-01T01:04:07.411Z,0
2017-11-01T01:05:09.786Z,0
2017-11-01T01:06:12.164Z,0
2017-11-01T01:07:14.534Z,0
2017-11-01T01:08:16.917Z,0
2017-11-01T01:09:19.289Z,0
2017-11-01T01:10:21.658Z,0
2017-11-01T01:11:24.043Z,0
2017-11-01T01:12:26.411Z,0
2017-11-01T01:13:28.792Z,0
2017-11-01T01:14:31.175Z,0
2017-11-01T01:15:33.547Z,0
2017-11-01T01:16:35.928Z,0
2017-11-01T01:17:38.298Z,0
2017-11-01T01:18:40.684Z,0
2017-11-01T01:19:43.056Z,0
2017-11-01T01:20:45.446Z,0
2017-11-01T01:21:48.160Z,0
2017-11-01T01:22:50.551Z,0
2017-11-01T01:23:52.935Z,0
2017-11-01T01:24:55.318Z,0
2017-11-01T01:25:57.690Z,0
2017-11-01T01:27:00.068Z,0
2017-11-01T01:28:02.441Z,0
2017-11-01T01:29:05.184Z,0
2017-11-01T01:30:07.578Z,0
2017-11-01T01:31:09.934Z,0
2017-11-01T01:32:12.308Z,0
2017-11-01T01:33:14.690Z,0
2017-11-01T01:34:17.414Z,0
2017-11-01T01:35:19.798Z,0
2017-11-01T01:36:22.167Z,0
2017-11-01T01:37:24.910Z,0
2017-11-01T01:38:27.289Z,0
2017-11-01T01:39:29.673Z,0
2017-11-01T01:40:32.062Z,0
2017-11-01T01:41:34.427Z,0
2017-11-01T01:42:37.154Z,0
2017-11-01T01:43:39.537Z,0
2017-11-01T01:44:41.911Z,0
2017-11-01T01:45:44.285Z,0
2017-11-01T01:46:46.673Z,0
2017-11-01T01:47:49.063Z,0
2017-11-01T01:48:52.529Z,0
2017-11-01T01:49:54.900Z,0
2017-11-01T01:50:57.291Z,0
2017-11-01T01:51:59.682Z,0
2017-11-01T01:53:02.053Z,0
2017-11-01T01:54:04.483Z,0
2017-11-01T01:55:06.839Z,0
2017-11-01T01:56:09.219Z,0
2017-11-01T01:57:11.596Z,0
2017-11-01T01:58:13.962Z,0
2017-11-01T01:59:16.351Z,0
2017-11-01T02:00:18.721Z,0
2017-11-01T02:01:21.099Z,0
2017-11-01T02:02:23.836Z,0
2017-11-01T02:03:26.203Z,0
2017-11-01T02:04:28.581Z,0
2017-11-01T02:05:30.963Z,0
2017-11-01T02:06:33.324Z,0
2017-11-01T02:07:35.700Z,0
2017-11-01T02:08:38.077Z,0
2017-11-01T02:09:40.457Z,0
2017-11-01T02:10:42.835Z,0
2017-11-01T02:11:45.218Z,0
2017-11-01T02:12:47.582Z,0
2017-11-01T02:13:50.321Z,0
2017-11-01T02:14:52.697Z,0
2017-11-01T02:15:55.068Z,0
2017-11-01T02:16:57.436Z,0
2017-11-01T02:17:59.812Z,0
2017-11-01T02:19:02.549Z,0
2017-11-01T02:20:04.921Z,0
2017-11-01T02:21:07.300Z,0
2017-11-01T02:22:09.676Z,0
2017-11-01T02:23:12.047Z,0
2017-11-01T02:24:14.439Z,0
2017-11-01T02:25:16.813Z,0
2017-11-01T02:26:19.198Z,0
2017-11-01T02:27:21.937Z,0
2017-11-01T02:28:24.315Z,0
2017-11-01T02:29:27.040Z,0
2017-11-01T02:30:29.423Z,0
2017-11-01T02:31:31.787Z,0
2017-11-01T02:32:34.517Z,0
2017-11-01T02:33:36.896Z,0
2017-11-01T02:34:39.280Z,0
2017-11-01T02:35:41.646Z,0
2017-11-01T02:36:44.012Z,0
2017-11-01T02:37:46.385Z,0
2017-11-01T02:38:48.789Z,0
2017-11-01T02:39:51.168Z,0
2017-11-01T02:40:53.534Z,0
2017-11-01T02:41:55.919Z,0
2017-11-01T02:42:58.296Z,0
2017-11-01T02:44:00.675Z,0
2017-11-01T02:45:03.403Z,0
2017-11-01T02:46:06.123Z,0
2017-11-01T02:47:08.500Z,0
2017-11-01T02:48:10.878Z,0
2017-11-01T02:49:13.599Z,0
2017-11-01T02:50:16.339Z,0
2017-11-01T02:51:18.702Z,0
2017-11-01T02:52:21.448Z,0
2017-11-01T02:53:23.808Z,0
2017-11-01T02:54:26.190Z,0
2017-11-01T02:55:28.569Z,0
2017-11-01T02:56:30.948Z,0
2017-11-01T02:57:33.355Z,0
2017-11-01T02:58:35.729Z,0
2017-11-01T02:59:38.465Z,0
2017-11-01T03:00:40.835Z,0
2017-11-01T03:01:43.259Z,0
2017-11-01T03:02:45.631Z,0
2017-11-01T03:03:48.001Z,0
2017-11-01T03:04:50.387Z,0
2017-11-01T03:05:52.749Z,0
2017-11-01T03:06:55.132Z,0
2017-11-01T03:07:57.578Z,0
2017-11-01T03:08:59.936Z,0
2017-11-01T03:10:02.311Z,0
2017-11-01T03:11:04.691Z,0
2017-11-01T03:12:07.073Z,0
2017-11-01T03:13:09.436Z,0
2017-11-01T03:14:11.816Z,0
2017-11-01T03:15:14.198Z,0
2017-11-01T03:16:16.564Z,0
2017-11-01T03:17:18.942Z,0
2017-11-01T03:18:21.327Z,0
2017-11-01T03:19:24.049Z,0
2017-11-01T03:20:26.417Z,0
2017-11-01T03:21:28.805Z,0
2017-11-01T03:22:31.549Z,0
2017-11-01T03:23:33.937Z,0
2017-11-01T03:24:36.326Z,0
2017-11-01T03:25:38.689Z,0
2017-11-01T03:26:41.076Z,0
2017-11-01T03:27:43.460Z,0
2017-11-01T03:28:45.833Z,0
2017-11-01T03:29:48.221Z,0
2017-11-01T03:30:50.588Z,0
2017-11-01T03:31:52.961Z,0
2017-11-01T03:32:55.349Z,0
2017-11-01T03:33:57.727Z,0
2017-11-01T03:35:00.104Z,0
2017-11-01T03:36:02.490Z,0
2017-11-01T03:37:04.867Z,0
2017-11-01T03:38:07.256Z,0
2017-11-01T03:39:09.988Z,0
2017-11-01T03:40:12.347Z,0
2017-11-01T03:41:14.728Z,0
2017-11-01T03:42:17.102Z,0
2017-11-01T03:43:19.488Z,0
2017-11-01T03:44:21.870Z,0
2017-11-01T03:45:24.263Z,0
2017-11-01T03:46:26.638Z,0
2017-11-01T03:47:29.014Z,0
2017-11-01T03:48:31.380Z,0
2017-11-01T03:49:33.766Z,0
2017-11-01T03:50:36.161Z,0
2017-11-01T03:51:38.528Z,0
2017-11-01T03:52:40.921Z,0
2017-11-01T03:53:43.653Z,0
2017-11-01T03:54:46.379Z,0
2017-11-01T03:55:48.770Z,0
2017-11-01T03:56:51.130Z,0
2017-11-01T03:57:53.880Z,0
2017-11-01T03:58:56.273Z,0
2017-11-01T03:59:58.626Z,0
2017-11-01T04:01:01.361Z,0
2017-11-01T04:02:03.731Z,0
2017-11-01T04:03:06.125Z,0
2017-11-01T04:04:08.498Z,0
2017-11-01T04:05:10.877Z,0
2017-11-01T04:06:13.253Z,0
2017-11-01T04:07:15.671Z,0
2017-11-01T04:08:18.048Z,0
2017-11-01T04:09:20.427Z,0
2017-11-01T04:10:22.826Z,0
2017-11-01T04:11:25.191Z,0
2017-11-01T04:12:27.573Z,0
2017-11-01T04:13:30.304Z,0
2017-11-01T04:14:32.678Z,0
2017-11-01T04:15:35.411Z,0
2017-11-01T04:16:37.777Z,0
2017-11-01T04:17:40.161Z,0
2017-11-01T04:18:42.531Z,0
2017-11-01T04:19:44.903Z,0
2017-11-01T04:20:47.292Z,0
2017-11-01T04:21:49.706Z,0
2017-11-01T04:22:52.075Z,0
2017-11-01T04:23:54.462Z,0
2017-11-01T04:24:56.822Z,0
2017-11-01T04:25:59.211Z,0
2017-11-01T04:27:01.925Z,0
2017-11-01T04:28:04.302Z,0
2017-11-01T04:29:06.668Z,0
2017-11-01T04:30:09.047Z,0
2017-11-01T04:31:11.418Z,0
2017-11-01T04:32:13.809Z,0
2017-11-01T04:33:16.194Z,0
2017-11-01T04:34:18.555Z,0
2017-11-01T04:35:21.286Z,0
2017-11-01T04:36:23.658Z,0
2017-11-01T04:37:26.038Z,0
2017-11-01T04:38:28.419Z,0
2017-11-01T04:39:31.142Z,0
2017-11-01T04:40:33.503Z,0
2017-11-01T04:41:36.240Z,0
2017-11-01T04:42:38.618Z,0
2017-11-01T04:43:40.983Z,0
2017-11-01T04:44:43.366Z,0
2017-11-01T04:45:45.747Z,0
2017-11-01T04:46:48.129Z,0
2017-11-01T04:47:50.868Z,0
2017-11-01T04:48:53.613Z,0
2017-11-01T04:49:55.992Z,0
2017-11-01T04:50:58.372Z,0
2017-11-01T04:52:00.746Z,0
2017-11-01T04:53:03.122Z,0
2017-11-01T04:54:05.494Z,0
2017-11-01T04:55:07.896Z,0
2017-11-01T04:56:10.265Z,0
2017-11-01T04:57:12.654Z,0
2017-11-01T04:58:15.028Z,0
2017-11-01T04:59:17.416Z,0
2017-11-01T05:00:20.504Z,0
2017-11-01T05:01:23.245Z,0
2017-11-01T05:02:25.625Z,0
2017-11-01T05:03:27.998Z,0
2017-11-01T05:04:30.379Z,0
2017-11-01T05:05:32.757Z,0
2017-11-01T05:06:35.127Z,0
2017-11-01T05:07:37.518Z,0
2017-11-01T05:08:39.894Z,0
2017-11-01T05:09:42.272Z,0
2017-11-01T05:10:45.002Z,0
2017-11-01T05:11:47.382Z,0
2017-11-01T05:12:49.759Z,0
2017-11-01T05:13:52.148Z,0
2017-11-01T05:14:54.524Z,0
2017-11-01T05:15:57.235Z,0
2017-11-01T05:16:59.615Z,0
2017-11-01T05:18:01.997Z,0
2017-11-01T05:19:04.372Z,0
2017-11-01T05:20:06.753Z,0
2017-11-01T05:21:09.141Z,0
2017-11-01T05:22:11.512Z,0
2017-11-01T05:23:14.241Z,0
2017-11-01T05:24:16.976Z,0
2017-11-01T05:25:19.352Z,0
2017-11-01T05:26:21.722Z,0
2017-11-01T05:27:24.111Z,0
2017-11-01T05:28:26.481Z,0
2017-11-01T05:29:28.855Z,0
2017-11-01T05:30:31.244Z,0
2017-11-01T05:31:33.968Z,0
2017-11-01T05:32:36.337Z,0
2017-11-01T05:33:38.724Z,0
2017-11-01T05:34:41.101Z,0
2017-11-01T05:35:43.481Z,0
2017-11-01T05:36:45.865Z,0
2017-11-01T05:37:48.255Z,0
2017-11-01T05:38:51.039Z,0
2017-11-01T05:39:53.421Z,0
2017-11-01T05:40:55.789Z,0
2017-11-01T05:41:58.531Z,0
2017-11-01T05:43:00.900Z,0
2017-11-01T05:44:03.684Z,0
2017-11-01T05:45:06.068Z,0
2017-11-01T05:46:08.458Z,0
2017-11-01T05:47:10.834Z,0
2017-11-01T05:48:13.203Z,4
2017-11-01T05:49:15.596Z,4
2017-11-01T05:50:17.957Z,4
2017-11-01T05:51:20.331Z,0
2017-11-01T05:52:22.713Z,4
2017-11-01T05:53:25.068Z,4
2017-11-01T05:54:27.452Z,4
2017-11-01T05:55:29.825Z,8
2017-11-01T05:56:32.204Z,8
2017-11-01T05:57:34.582Z,12
2017-11-01T05:58:36.968Z,12
2017-11-01T05:59:39.348Z,12
2017-11-01T06:00:41.746Z,12
2017-11-01T06:01:44.117Z,12
2017-11-01T06:02:46.497Z,20
2017-11-01T06:03:48.870Z,20
2017-11-01T06:04:51.266Z,24
2017-11-01T06:05:53.982Z,24
2017-11-01T06:06:56.358Z,32
2017-11-01T06:07:59.087Z,32
2017-11-01T06:09:01.473Z,36
2017-11-01T06:10:03.839Z,40
2017-11-01T06:11:06.220Z,48
2017-11-01T06:12:08.937Z,48
2017-11-01T06:13:11.319Z,48
2017-11-01T06:14:13.713Z,56
2017-11-01T06:15:16.074Z,60
2017-11-01T06:16:18.803Z,64
2017-11-01T06:17:21.194Z,80
2017-11-01T06:18:23.585Z,88
2017-11-01T06:19:26.304Z,84
2017-11-01T06:20:28.694Z,92
2017-11-01T06:21:31.061Z,100
2017-11-01T06:22:33.494Z,100
2017-11-01T06:23:36.257Z,108
2017-11-01T06:24:38.636Z,120
2017-11-01T06:25:41.001Z,132
2017-11-01T06:26:43.747Z,144
2017-11-01T06:27:46.470Z,156
2017-11-01T06:28:48.851Z,180
2017-11-01T06:29:51.582Z,192
2017-11-01T06:30:54.311Z,232
2017-11-01T06:31:56.678Z,268
2017-11-01T06:32:59.056Z,252
2017-11-01T06:34:01.425Z,204
2017-11-01T06:35:03.802Z,200
2017-11-01T06:36:06.178Z,248
2017-11-01T06:37:08.555Z,284
2017-11-01T06:38:10.927Z,272
2017-11-01T06:39:13.308Z,248
2017-11-01T06:40:15.680Z,264
2017-11-01T06:41:18.062Z,284
2017-11-01T06:42:20.436Z,348
2017-11-01T06:43:22.801Z,368
2017-11-01T06:44:25.550Z,400
2017-11-01T06:45:27.942Z,428
2017-11-01T06:46:30.315Z,456
2017-11-01T06:47:32.694Z,444
2017-11-01T06:48:35.069Z,436
2017-11-01T06:49:37.459Z,392
2017-11-01T06:50:39.831Z,404
2017-11-01T06:51:42.222Z,464
2017-11-01T06:52:44.586Z,472
2017-11-01T06:53:46.963Z,440
2017-11-01T06:54:49.342Z,432
2017-11-01T06:55:51.712Z,444
2017-11-01T06:56:54.469Z,496
2017-11-01T06:57:56.835Z,536
2017-11-01T06:58:59.598Z,576
2017-11-01T07:00:01.973Z,544
2017-11-01T07:01:04.709Z,464
2017-11-01T07:02:07.075Z,380
2017-11-01T07:03:09.434Z,360
2017-11-01T07:04:11.825Z,416
2017-11-01T07:05:14.565Z,464
2017-11-01T07:06:16.939Z,480
2017-11-01T07:07:19.313Z,460
2017-11-01T07:08:21.688Z,456
2017-11-01T07:09:24.056Z,492
2017-11-01T07:10:26.442Z,528
2017-11-01T07:11:28.819Z,532
2017-11-01T07:12:31.209Z,620
2017-11-01T07:13:33.598Z,660
2017-11-01T07:14:35.973Z,732
2017-11-01T07:15:38.344Z,764
2017-11-01T07:16:40.744Z,808
2017-11-01T07:17:43.109Z,772
2017-11-01T07:18:45.494Z,884
2017-11-01T07:19:47.870Z,1068
2017-11-01T07:20:50.639Z,1124
2017-11-01T07:21:53.019Z,1084
2017-11-01T07:22:55.387Z,1072
2017-11-01T07:23:58.118Z,1132
2017-11-01T07:25:00.519Z,1128
2017-11-01T07:26:02.896Z,1240
2017-11-01T07:27:05.269Z,1080
2017-11-01T07:28:07.660Z,996
2017-11-01T07:29:10.043Z,984
2017-11-01T07:30:12.405Z,988
2017-11-01T07:31:14.789Z,1108
2017-11-01T07:32:17.500Z,1320
2017-11-01T07:33:19.892Z,1580
2017-11-01T07:34:22.275Z,1748
2017-11-01T07:35:24.634Z,2040
2017-11-01T07:36:27.005Z,2412
2017-11-01T07:37:29.390Z,2644
2017-11-01T07:38:32.468Z,2468
2017-11-01T07:39:35.197Z,2444
2017-11-01T07:40:37.576Z,2468
2017-11-01T07:41:39.960Z,2352
2017-11-01T07:42:42.694Z,2224
2017-11-01T07:43:45.062Z,1872
2017-11-01T07:44:47.445Z,1728
2017-11-01T07:45:49.823Z,1756
2017-11-01T07:46:52.195Z,1736
2017-11-01T07:47:54.586Z,1784
2017-11-01T07:48:56.957Z,1692
2017-11-01T07:49:59.326Z,1712
2017-11-01T07:51:02.069Z,1596
2017-11-01T07:52:04.435Z,1616
2017-11-01T07:53:06.814Z,1592
2017-11-01T07:54:09.190Z,1632
2017-11-01T07:55:11.563Z,1536
2017-11-01T07:56:13.943Z,1448
2017-11-01T07:57:16.339Z,1452
2017-11-01T07:58:18.721Z,1568
2017-11-01T07:59:21.435Z,1620
2017-11-01T08:00:23.813Z,1584
2017-11-01T08:01:26.172Z,1488
2017-11-01T08:02:28.544Z,1532
2017-11-01T08:03:30.936Z,1412
2017-11-01T08:04:33.318Z,1404
2017-11-01T08:05:35.688Z,1344
2017-11-01T08:06:38.066Z,1392
2017-11-01T08:07:40.454Z,1344
2017-11-01T08:08:43.212Z,1264
2017-11-01T08:09:45.586Z,1240
2017-11-01T08:10:47.958Z,1164
2017-11-01T08:11:50.698Z,1152
2017-11-01T08:12:53.077Z,1292
2017-11-01T08:13:55.457Z,1384
2017-11-01T08:14:57.838Z,1636
2017-11-01T08:16:00.483Z,1992
2017-11-01T08:17:03.498Z,2168
2017-11-01T08:18:05.892Z,2176
2017-11-01T08:19:08.297Z,2172
2017-11-01T08:20:10.686Z,2044
2017-11-01T08:21:13.096Z,2432
2017-11-01T08:22:15.515Z,2644
2017-11-01T08:23:17.908Z,2740
2017-11-01T08:24:20.647Z,2484
2017-11-01T08:25:23.311Z,2960
2017-11-01T08:26:25.686Z,2732
2017-11-01T08:27:28.163Z,2716
2017-11-01T08:28:31.088Z,3076
2017-11-01T08:29:33.550Z,3548
2017-11-01T08:30:36.928Z,3804
2017-11-01T08:31:39.371Z,4032
2017-11-01T08:32:41.793Z,4304
2017-11-01T08:33:44.324Z,4372
2017-11-01T08:34:47.321Z,4784
2017-11-01T08:35:49.747Z,4684
2017-11-01T08:36:52.495Z,4708
2017-11-01T08:37:54.907Z,3580
2017-11-01T08:38:57.917Z,3716
2017-11-01T08:40:00.652Z,3912
2017-11-01T08:41:03.030Z,3548
2017-11-01T08:42:05.431Z,3400
2017-11-01T08:43:07.868Z,3872
2017-11-01T08:44:10.272Z,3536
2017-11-01T08:45:12.856Z,3420
2017-11-01T08:46:15.660Z,3716
2017-11-01T08:47:18.398Z,3728
2017-11-01T08:48:20.800Z,3564
2017-11-01T08:49:23.215Z,3324
2017-11-01T08:50:25.955Z,3820
2017-11-01T08:51:29.154Z,3376
2017-11-01T08:52:31.530Z,3404
2017-11-01T08:53:33.926Z,2968
2017-11-01T08:54:36.372Z,2980
2017-11-01T08:55:38.765Z,2816
2017-11-01T08:56:41.149Z,2740
2017-11-01T08:57:43.539Z,2756
2017-11-01T08:58:45.905Z,3440
2017-11-01T08:59:48.640Z,3472
2017-11-01T09:00:51.120Z,3320
2017-11-01T09:01:53.556Z,3488
2017-11-01T09:02:55.931Z,3032
2017-11-01T09:03:58.307Z,3152
2017-11-01T09:05:00.685Z,3448
2017-11-01T09:06:03.098Z,3064
2017-11-01T09:07:05.491Z,3668
2017-11-01T09:08:07.865Z,3900
2017-11-01T09:09:10.658Z,2824
2017-11-01T09:10:13.178Z,2472
2017-11-01T09:11:15.918Z,2452
2017-11-01T09:12:18.299Z,2516
2017-11-01T09:13:20.694Z,2716
2017-11-01T09:14:23.085Z,2740
2017-11-01T09:15:25.450Z,2892
2017-11-01T09:16:28.176Z,3064
2017-11-01T09:17:30.554Z,3004
2017-11-01T09:18:32.952Z,3420
2017-11-01T09:19:35.337Z,3188
2017-11-01T09:20:37.713Z,3564
2017-11-01T09:21:40.107Z,2976
2017-11-01T09:22:42.478Z,2756
2017-11-01T09:23:44.870Z,2856
2017-11-01T09:24:47.244Z,2844
2017-11-01T09:25:49.625Z,2680
2017-11-01T09:26:51.995Z,3148
2017-11-01T09:27:54.377Z,3248
2017-11-01T09:28:56.757Z,3172
2017-11-01T09:29:59.136Z,3244
2017-11-01T09:31:01.511Z,3036
2017-11-01T09:32:03.900Z,3076
2017-11-01T09:33:06.261Z,3300
2017-11-01T09:34:08.652Z,3264
2017-11-01T09:35:11.019Z,3336
2017-11-01T09:36:13.760Z,3212
2017-11-01T09:37:16.132Z,3056
2017-11-01T09:38:18.518Z,3108
2017-11-01T09:39:20.897Z,3544
2017-11-01T09:40:23.271Z,3772
2017-11-01T09:41:25.656Z,3164
2017-11-01T09:42:28.042Z,3496
2017-11-01T09:43:30.488Z,3368
2017-11-01T09:44:32.859Z,3260
2017-11-01T09:45:35.261Z,3024
2017-11-01T09:46:37.624Z,2668
2017-11-01T09:47:40.013Z,2760
2017-11-01T09:48:42.388Z,3088
2017-11-01T09:49:44.780Z,2804
2017-11-01T09:50:47.153Z,2716
2017-11-01T09:51:49.530Z,4312
2017-11-01T09:52:51.907Z,4384
2017-11-01T09:53:54.286Z,4396
2017-11-01T09:54:56.668Z,4172
2017-11-01T09:55:59.047Z,4996
2017-11-01T09:57:01.428Z,4816
2017-11-01T09:58:03.823Z,4024
2017-11-01T09:59:06.196Z,3836
2017-11-01T10:00:08.624Z,4328
2017-11-01T10:01:11.009Z,4136
2017-11-01T10:02:13.383Z,4208
2017-11-01T10:03:15.763Z,3940
2017-11-01T10:04:18.149Z,3636
2017-11-01T10:05:20.532Z,2868
2017-11-01T10:06:22.919Z,2408
2017-11-01T10:07:25.299Z,2724
2017-11-01T10:08:27.686Z,2972
2017-11-01T10:09:30.065Z,2940
2017-11-01T10:10:32.803Z,3244
2017-11-01T10:11:35.185Z,3704
2017-11-01T10:12:37.920Z,3760
2017-11-01T10:13:40.298Z,3340
2017-11-01T10:14:42.673Z,3136
2017-11-01T10:15:45.055Z,3268
2017-11-01T10:16:47.423Z,3292
2017-11-01T10:17:49.794Z,3424
2017-11-01T10:18:52.185Z,3652
2017-11-01T10:19:54.596Z,4332
2017-11-01T10:20:56.972Z,3852
2017-11-01T10:21:59.352Z,3736
2017-11-01T10:23:01.736Z,3652
2017-11-01T10:24:04.462Z,3960
2017-11-01T10:25:06.835Z,3944
2017-11-01T10:26:09.210Z,4184
2017-11-01T10:27:11.601Z,4064
2017-11-01T10:28:13.979Z,3784
2017-11-01T10:29:16.711Z,3876
2017-11-01T10:30:19.085Z,3688
2017-11-01T10:31:22.182Z,3820
2017-11-01T10:32:24.552Z,3700
2017-11-01T10:33:27.269Z,3340
2017-11-01T10:34:29.645Z,2980
2017-11-01T10:35:32.031Z,3016
2017-11-01T10:36:34.848Z,2756
2017-11-01T10:37:37.588Z,3060
2017-11-01T10:38:39.965Z,3020
2017-11-01T10:39:42.355Z,2732
2017-11-01T10:40:44.736Z,3008
2017-11-01T10:41:47.103Z,3544
2017-11-01T10:42:49.472Z,3280
2017-11-01T10:43:51.848Z,3328
2017-11-01T10:44:54.224Z,3288
2017-11-01T10:45:56.597Z,3228
2017-11-01T10:46:58.983Z,3200
2017-11-01T10:48:01.351Z,3620
2017-11-01T10:49:04.090Z,3880
2017-11-01T10:50:06.474Z,3516
2017-11-01T10:51:08.849Z,3492
2017-11-01T10:52:11.232Z,3404
2017-11-01T10:53:13.968Z,3124
2017-11-01T10:54:16.340Z,3360
2017-11-01T10:55:18.721Z,3292
2017-11-01T10:56:21.097Z,3476
2017-11-01T10:57:23.481Z,4580
2017-11-01T10:58:25.862Z,4544
2017-11-01T10:59:28.248Z,3484
2017-11-01T11:00:30.983Z,2944
2017-11-01T11:01:33.368Z,3660
2017-11-01T11:02:35.733Z,5060
2017-11-01T11:03:38.119Z,5480
2017-11-01T11:04:40.496Z,7440
2017-11-01T11:05:43.064Z,6240
2017-11-01T11:06:51.840Z,5460
2017-11-01T11:08:01.723Z,5428
2017-11-01T11:09:13.844Z,5008
2017-11-01T11:10:27.213Z,6356
2017-11-01T11:11:38.915Z,6664
2017-11-01T11:12:49.586Z,5984
2017-11-01T11:14:03.381Z,5928
2017-11-01T11:15:05.743Z,7448
2017-11-01T11:16:08.128Z,6728
2017-11-01T11:17:10.514Z,7272
2017-11-01T11:18:13.229Z,6892
2017-11-01T11:19:15.606Z,6332
2017-11-01T11:20:17.984Z,5004
2017-11-01T11:21:20.358Z,5432
2017-11-01T11:22:22.739Z,6184
2017-11-01T11:23:25.124Z,6732
2017-11-01T11:24:27.487Z,6876
2017-11-01T11:25:29.870Z,6536
2017-11-01T11:26:32.601Z,5404
2017-11-01T11:27:34.983Z,5072
2017-11-01T11:28:37.362Z,5892
2017-11-01T11:29:39.733Z,5020
2017-11-01T11:30:42.113Z,4400
2017-11-01T11:31:44.513Z,4496
2017-11-01T11:32:47.599Z,5556
2017-11-01T11:33:49.972Z,6012
2017-11-01T11:34:52.694Z,5664
2017-11-01T11:35:55.065Z,6284
2017-11-01T11:36:57.455Z,6076
2017-11-01T11:37:59.833Z,4484
2017-11-01T11:39:02.205Z,5164
2017-11-01T11:40:04.580Z,6240
2017-11-01T11:41:07.316Z,5140
2017-11-01T11:42:10.034Z,4784
2017-11-01T11:43:12.428Z,4440
2017-11-01T11:44:15.147Z,5612
2017-11-01T11:45:17.532Z,5224
2017-11-01T11:46:20.264Z,5120
2017-11-01T11:47:22.661Z,6316
2017-11-01T11:48:25.052Z,6864
2017-11-01T11:49:27.428Z,8164
2017-11-01T11:50:29.808Z,7412
2017-11-01T11:51:32.532Z,7284
2017-11-01T11:52:34.910Z,7484
2017-11-01T11:53:37.285Z,7492
2017-11-01T11:54:39.675Z,5368
2017-11-01T11:55:42.060Z,5904
2017-11-01T11:56:44.443Z,5436
2017-11-01T11:57:47.188Z,4640
2017-11-01T11:58:49.563Z,4932
2017-11-01T11:59:51.953Z,5044
2017-11-01T12:00:54.322Z,5032
2017-11-01T12:01:56.711Z,4044
2017-11-01T12:02:59.086Z,4016
2017-11-01T12:04:01.468Z,4956
2017-11-01T12:05:03.849Z,5800
2017-11-01T12:06:06.233Z,5500
2017-11-01T12:07:08.619Z,6396
2017-11-01T12:08:11.005Z,5868
2017-11-01T12:09:13.375Z,6180
2017-11-01T12:10:15.748Z,6196
2017-11-01T12:11:18.129Z,5360
2017-11-01T12:12:20.528Z,5976
2017-11-01T12:13:22.911Z,7928
2017-11-01T12:14:25.297Z,7292
2017-11-01T12:15:27.688Z,8688
2017-11-01T12:16:30.058Z,7180
2017-11-01T12:17:32.459Z,8092
2017-11-01T12:18:34.829Z,6844
2017-11-01T12:19:37.548Z,4996
2017-11-01T12:20:39.929Z,4796
2017-11-01T12:21:42.305Z,4272
2017-11-01T12:22:44.683Z,4636
2017-11-01T12:23:47.061Z,3908
2017-11-01T12:24:49.431Z,3508
2017-11-01T12:25:51.802Z,2984
2017-11-01T12:26:54.193Z,2944
2017-11-01T12:27:56.566Z,2680
2017-11-01T12:28:58.946Z,2512
2017-11-01T12:30:01.332Z,2960
2017-11-01T12:31:03.704Z,3092
2017-11-01T12:32:06.094Z,2776
2017-11-01T12:33:08.474Z,2912
2017-11-01T12:34:10.845Z,2888
2017-11-01T12:35:13.229Z,2780
2017-11-01T12:36:15.981Z,2648
2017-11-01T12:37:18.363Z,2712
2017-11-01T12:38:20.742Z,2584
2017-11-01T12:39:23.130Z,2372
2017-11-01T12:40:25.860Z,2092
2017-11-01T12:41:28.247Z,2256
2017-11-01T12:42:30.624Z,2600
2017-11-01T12:43:33.002Z,2472
2017-11-01T12:44:35.727Z,1768
2017-11-01T12:45:38.117Z,1840
2017-11-01T12:46:40.493Z,1716
2017-11-01T12:47:42.865Z,1748
2017-11-01T12:48:45.243Z,1796
2017-11-01T12:49:47.634Z,2028
2017-11-01T12:50:50.358Z,2208
2017-11-01T12:51:52.743Z,1992
2017-11-01T12:52:55.113Z,2260
2017-11-01T12:53:57.498Z,2148
2017-11-01T12:54:59.870Z,2028
2017-11-01T12:56:02.258Z,2180
2017-11-01T12:57:04.629Z,1944
2017-11-01T12:58:07.001Z,1572
2017-11-01T12:59:09.376Z,1500
2017-11-01T13:00:11.770Z,1616
2017-11-01T13:01:14.144Z,1476
2017-11-01T13:02:16.524Z,1296
2017-11-01T13:03:18.901Z,1232
2017-11-01T13:04:21.284Z,1404
2017-11-01T13:05:23.666Z,1288
2017-11-01T13:06:26.046Z,1304
2017-11-01T13:07:28.413Z,1328
2017-11-01T13:08:30.796Z,1116
2017-11-01T13:09:33.184Z,1284
2017-11-01T13:10:35.562Z,1344
2017-11-01T13:11:37.952Z,1420
2017-11-01T13:12:40.325Z,1484
2017-11-01T13:13:42.697Z,1468
2017-11-01T13:14:45.079Z,1680
2017-11-01T13:15:47.450Z,1880
2017-11-01T13:16:49.826Z,2256
2017-11-01T13:17:52.564Z,3028
2017-11-01T13:18:54.942Z,3384
2017-11-01T13:19:57.369Z,2272
2017-11-01T13:21:00.289Z,2220
2017-11-01T13:22:02.676Z,2432
2017-11-01T13:23:05.048Z,2288
2017-11-01T13:24:07.446Z,2196
2017-11-01T13:25:09.827Z,2568
2017-11-01T13:26:12.571Z,2752
2017-11-01T13:27:15.319Z,2764
2017-11-01T13:28:17.695Z,2712
2017-11-01T13:29:20.069Z,2588
2017-11-01T13:30:22.451Z,2236
2017-11-01T13:31:24.821Z,2020
2017-11-01T13:32:27.557Z,2532
2017-11-01T13:33:29.930Z,2680
2017-11-01T13:34:32.313Z,2652
2017-11-01T13:35:34.685Z,3312
2017-11-01T13:36:37.417Z,3292
2017-11-01T13:37:39.798Z,3128
2017-11-01T13:38:42.166Z,3156
2017-11-01T13:39:44.544Z,3452
2017-11-01T13:40:46.934Z,2304
2017-11-01T13:41:49.300Z,2512
2017-11-01T13:42:51.686Z,2184
2017-11-01T13:43:54.059Z,2668
2017-11-01T13:44:56.447Z,2480
2017-11-01T13:45:58.987Z,2504
2017-11-01T13:47:01.384Z,2636
2017-11-01T13:48:04.074Z,2220
2017-11-01T13:49:06.793Z,2012
2017-11-01T13:50:09.180Z,2080
2017-11-01T13:51:11.563Z,2256
2017-11-01T13:52:13.929Z,2048
2017-11-01T13:53:16.311Z,2104
2017-11-01T13:54:18.705Z,2180
2017-11-01T13:55:21.079Z,2328
2017-11-01T13:56:23.456Z,2496
2017-11-01T13:57:25.960Z,2632
2017-11-01T13:58:28.328Z,3348
2017-11-01T13:59:30.720Z,3376
2017-11-01T14:00:33.099Z,3664
2017-11-01T14:01:35.488Z,4164
2017-11-01T14:02:37.855Z,3940
2017-11-01T14:03:40.231Z,3400
2017-11-01T14:04:42.621Z,2712
2017-11-01T14:05:44.998Z,2240
2017-11-01T14:06:47.366Z,1816
2017-11-01T14:07:49.733Z,1748
2017-11-01T14:08:52.123Z,1776
2017-11-01T14:09:54.502Z,1440
2017-11-01T14:10:56.869Z,2104
2017-11-01T14:11:59.252Z,1724
2017-11-01T14:13:01.625Z,1624
2017-11-01T14:14:03.999Z,1456
2017-11-01T14:15:06.383Z,1424
2017-11-01T14:16:08.751Z,1304
2017-11-01T14:17:11.127Z,1312
2017-11-01T14:18:13.523Z,1224
2017-11-01T14:19:15.894Z,1804
2017-11-01T14:20:18.267Z,1688
2017-11-01T14:21:20.638Z,1900
2017-11-01T14:22:23.009Z,2108
2017-11-01T14:23:25.405Z,2772
2017-11-01T14:24:27.784Z,2596
2017-11-01T14:25:30.161Z,2292
2017-11-01T14:26:32.545Z,2248
2017-11-01T14:27:34.917Z,2464
2017-11-01T14:28:37.292Z,2184
2017-11-01T14:29:39.677Z,1872
2017-11-01T14:30:42.048Z,2040
2017-11-01T14:31:44.430Z,1616
2017-11-01T14:32:46.823Z,2376
2017-11-01T14:33:49.200Z,2488
2017-11-01T14:34:51.945Z,2836